createdAt,value
2019-04-29T00:02:40.254Z,5.57
2019-04-29T00:05:11.488Z,5.53
2019-04-29T00:07:41.468Z,5.90
2019-04-29T00:10:13.772Z,5.27
2019-04-29T00:12:43.979Z,5.20
2019-04-29T00:15:42.997Z,5.77
2019-04-29T00:18:19.960Z,4.60
2019-04-29T00:20:51.012Z,5.40
2019-04-29T00:23:21.373Z,5.93
2019-04-29T00:25:51.599Z,5.33
2019-04-29T00:28:21.626Z,4.83
2019-04-29T00:30:51.648Z,5.30
2019-04-29T00:33:21.708Z,5.50
2019-04-29T00:35:51.664Z,5.53
2019-04-29T00:38:40.488Z,5.90
2019-04-29T00:41:29.412Z,6.03
2019-04-29T00:44:01.661Z,6.00
2019-04-29T00:46:31.720Z,5.23
2019-04-29T00:49:01.641Z,6.30
2019-04-29T00:51:31.709Z,7.83
2019-04-29T00:54:12.346Z,6.23
2019-04-29T00:56:43.522Z,5.90
2019-04-29T00:59:13.485Z,6.40
2019-04-29T01:01:43.741Z,5.37
2019-04-29T01:04:13.753Z,5.67
2019-04-29T01:06:43.940Z,6.07
2019-04-29T01:09:15.929Z,6.60
2019-04-29T01:11:45.947Z,5.40
2019-04-29T01:14:16.162Z,6.43
2019-04-29T01:16:46.273Z,6.00
2019-04-29T01:19:16.259Z,5.10
2019-04-29T01:21:46.324Z,5.50
2019-04-29T01:24:16.621Z,5.30
2019-04-29T01:27:05.841Z,5.10
2019-04-29T01:29:35.896Z,6.53
2019-04-29T01:32:07.468Z,7.43
2019-04-29T01:34:44.053Z,5.63
2019-04-29T01:37:14.344Z,4.93
2019-04-29T01:40:06.711Z,5.37
2019-04-29T01:42:39.328Z,6.00
2019-04-29T01:45:09.416Z,6.10
2019-04-29T01:47:39.378Z,6.50
2019-04-29T01:50:09.987Z,5.20
2019-04-29T01:52:40.157Z,5.20
2019-04-29T01:55:10.513Z,5.13
2019-04-29T01:57:40.613Z,6.07
2019-04-29T02:00:12.726Z,4.90
2019-04-29T02:02:42.839Z,5.60
2019-04-29T02:05:13.452Z,5.90
2019-04-29T02:07:43.808Z,5.70
2019-04-29T02:10:28.740Z,5.70
2019-04-29T02:12:58.857Z,4.87
2019-04-29T02:15:29.100Z,6.60
2019-04-29T02:17:59.137Z,5.30
2019-04-29T02:20:29.106Z,5.20
2019-04-29T02:23:16.985Z,4.93
2019-04-29T02:25:47.804Z,5.57
2019-04-29T02:28:17.832Z,6.40
2019-04-29T02:30:49.640Z,6.80
2019-04-29T02:33:19.983Z,6.07
2019-04-29T02:35:50.112Z,5.50
2019-04-29T02:38:36.205Z,6.63
2019-04-29T02:41:46.132Z,6.33
2019-04-29T02:44:16.221Z,4.83
2019-04-29T02:46:46.741Z,6.33
2019-04-29T02:49:16.913Z,5.70
2019-04-29T02:51:50.228Z,5.93
2019-04-29T02:54:20.553Z,5.70
2019-04-29T02:57:12.187Z,5.70
2019-04-29T02:59:46.751Z,6.57
2019-04-29T03:02:34.043Z,5.60
2019-04-29T03:05:15.847Z,5.60
2019-04-29T03:07:46.000Z,5.07
2019-04-29T03:10:16.200Z,5.93
2019-04-29T03:12:46.512Z,5.90
2019-04-29T03:15:28.861Z,5.30
2019-04-29T03:17:59.187Z,5.83
2019-04-29T03:21:00.065Z,5.90
2019-04-29T03:23:31.007Z,5.13
2019-04-29T03:26:00.981Z,5.83
2019-04-29T03:28:30.966Z,5.33
2019-04-29T03:31:01.001Z,7.07
2019-04-29T03:33:31.044Z,7.23
2019-04-29T03:36:01.118Z,6.43
2019-04-29T03:38:31.227Z,7.97
2019-04-29T03:41:01.212Z,6.10
2019-04-29T03:43:31.260Z,6.10
2019-04-29T03:46:01.388Z,5.77
2019-04-29T03:48:31.373Z,4.20
2019-04-29T03:51:01.400Z,5.47
2019-04-29T03:53:31.577Z,6.83
2019-04-29T03:56:02.250Z,5.27
2019-04-29T03:58:32.257Z,5.53
2019-04-29T04:01:27.734Z,5.77
2019-04-29T04:04:09.049Z,6.53
2019-04-29T04:06:49.960Z,5.80
2019-04-29T04:09:29.057Z,5.87
2019-04-29T04:11:59.554Z,5.80
2019-04-29T04:14:29.737Z,6.20
2019-04-29T04:17:33.677Z,6.60
2019-04-29T04:20:04.056Z,7.40
2019-04-29T04:22:46.858Z,10.30
2019-04-29T04:25:17.891Z,9.63
2019-04-29T04:27:48.080Z,7.97
2019-04-29T04:30:18.768Z,11.03
2019-04-29T04:32:48.921Z,10.00
2019-04-29T04:35:19.116Z,7.10
2019-04-29T04:37:49.237Z,8.10
2019-04-29T04:40:25.253Z,7.33
2019-04-29T04:42:55.513Z,6.83
2019-04-29T04:45:25.583Z,7.70
2019-04-29T04:47:55.716Z,7.83
2019-04-29T04:50:25.787Z,7.97
2019-04-29T04:52:55.832Z,8.90
2019-04-29T04:55:28.762Z,10.37
2019-04-29T04:57:58.884Z,8.93
2019-04-29T05:00:30.697Z,9.60
2019-04-29T05:03:00.727Z,8.13
2019-04-29T05:05:31.177Z,9.80
2019-04-29T05:08:01.164Z,9.33
2019-04-29T05:10:31.408Z,6.83
2019-04-29T05:13:01.886Z,7.53
2019-04-29T05:15:32.452Z,7.83
2019-04-29T05:18:02.471Z,6.07
2019-04-29T05:20:32.821Z,5.53
2019-04-29T05:23:03.040Z,5.70
2019-04-29T05:25:34.788Z,8.37
2019-04-29T05:28:05.507Z,9.63
2019-04-29T05:30:35.605Z,7.47
2019-04-29T05:33:05.762Z,10.47
2019-04-29T05:35:56.814Z,10.33
2019-04-29T05:38:37.028Z,11.43
2019-04-29T05:41:07.358Z,10.93
2019-04-29T05:43:52.635Z,10.70
2019-04-29T05:46:48.564Z,9.73
2019-04-29T05:49:22.810Z,8.10
2019-04-29T05:52:12.000Z,8.47
2019-04-29T05:54:42.908Z,9.80
2019-04-29T05:57:12.961Z,7.63
2019-04-29T05:59:47.685Z,5.70
2019-04-29T06:02:15.319Z,6.37
2019-04-29T06:04:48.204Z,6.70
2019-04-29T06:07:21.521Z,5.03
2019-04-29T06:09:49.492Z,5.97
2019-04-29T06:12:19.620Z,5.27
2019-04-29T06:14:50.116Z,6.70
2019-04-29T06:17:20.162Z,5.50
2019-04-29T06:19:50.259Z,5.20
2019-04-29T06:22:20.425Z,6.10
2019-04-29T06:24:50.357Z,4.93
2019-04-29T06:27:20.884Z,5.37
2019-04-29T06:29:50.944Z,5.50
2019-04-29T06:32:25.078Z,5.63
2019-04-29T06:34:52.596Z,7.70
2019-04-29T06:37:22.904Z,7.00
2019-04-29T06:39:52.988Z,4.40
2019-04-29T06:42:23.580Z,5.63
2019-04-29T06:44:53.639Z,5.63
2019-04-29T06:47:24.043Z,4.10
2019-04-29T06:49:54.215Z,5.33
2019-04-29T06:52:24.186Z,4.47
2019-04-29T06:54:54.228Z,5.20
2019-04-29T06:57:24.212Z,4.63
2019-04-29T06:59:54.939Z,5.57
2019-04-29T07:02:24.988Z,5.73
2019-04-29T07:04:55.000Z,6.00
2019-04-29T07:07:25.409Z,5.50
2019-04-29T07:09:57.013Z,5.07
2019-04-29T07:12:27.140Z,5.67
2019-04-29T07:14:57.148Z,4.67
2019-04-29T07:17:27.448Z,5.93
2019-04-29T07:20:01.700Z,6.00
2019-04-29T07:22:31.121Z,5.53
2019-04-29T07:25:01.224Z,5.80
2019-04-29T07:27:34.528Z,5.53
2019-04-29T07:30:06.562Z,6.10
2019-04-29T07:32:34.745Z,5.20
2019-04-29T07:35:05.833Z,4.93
2019-04-29T07:37:36.220Z,5.23
2019-04-29T07:40:07.989Z,5.27
2019-04-29T07:42:39.479Z,6.13
2019-04-29T07:45:44.009Z,5.70
2019-04-29T07:48:07.611Z,5.77
2019-04-29T07:50:37.848Z,5.60
2019-04-29T07:53:08.358Z,5.53
2019-04-29T07:55:38.501Z,4.77
2019-04-29T07:58:08.656Z,5.90
2019-04-29T08:00:38.803Z,5.47
2019-04-29T08:03:09.825Z,5.87
2019-04-29T08:05:41.104Z,5.83
2019-04-29T08:08:11.360Z,5.30
2019-04-29T08:10:54.002Z,5.37
2019-04-29T08:13:14.866Z,5.50
2019-04-29T08:15:44.948Z,7.43
2019-04-29T08:18:16.308Z,7.97
2019-04-29T08:20:46.788Z,6.23
2019-04-29T08:23:16.778Z,5.60
2019-04-29T08:25:46.908Z,5.60
2019-04-29T08:28:17.016Z,4.80
2019-04-29T08:30:47.405Z,5.20
2019-04-29T08:33:17.423Z,5.50
2019-04-29T08:35:47.617Z,6.27
2019-04-29T08:38:17.582Z,5.43
2019-04-29T08:40:50.106Z,5.77
2019-04-29T08:43:35.781Z,5.23
2019-04-29T08:46:27.795Z,5.67
2019-04-29T08:49:01.049Z,5.73
2019-04-29T08:51:29.467Z,6.50
2019-04-29T08:53:59.593Z,4.90
2019-04-29T08:56:29.827Z,6.20
2019-04-29T08:58:59.884Z,5.50
2019-04-29T09:01:34.157Z,5.47
2019-04-29T09:04:01.768Z,5.70
2019-04-29T09:06:32.654Z,5.70
2019-04-29T09:09:04.861Z,5.73
2019-04-29T09:11:35.801Z,5.53
2019-04-29T09:14:05.999Z,4.83
2019-04-29T09:16:36.036Z,5.67
2019-04-29T09:19:06.196Z,5.37
2019-04-29T09:21:36.276Z,5.50
2019-04-29T09:24:06.304Z,5.40
2019-04-29T09:26:44.657Z,5.27
2019-04-29T09:29:34.201Z,5.33
2019-04-29T09:32:05.230Z,4.60
2019-04-29T09:34:35.525Z,5.63
2019-04-29T09:37:06.127Z,5.67
2019-04-29T09:39:43.428Z,4.90
2019-04-29T09:42:31.613Z,5.70
2019-04-29T09:45:14.687Z,4.60
2019-04-29T09:47:43.225Z,5.10
2019-04-29T09:50:13.698Z,5.50
2019-04-29T09:52:43.843Z,4.77
2019-04-29T09:55:14.356Z,5.20
2019-04-29T09:57:44.414Z,5.17
2019-04-29T10:00:23.160Z,4.90
2019-04-29T10:03:02.912Z,4.40
2019-04-29T10:05:42.923Z,5.60
2019-04-29T10:08:13.229Z,4.53
2019-04-29T10:10:43.369Z,5.30
2019-04-29T10:13:13.949Z,4.43
2019-04-29T10:16:02.148Z,4.70
2019-04-29T10:18:49.095Z,4.90
2019-04-29T10:21:21.523Z,4.67
2019-04-29T10:23:51.203Z,5.37
2019-04-29T10:26:21.373Z,5.43
2019-04-29T10:28:59.024Z,4.80
2019-04-29T10:31:29.049Z,5.20
2019-04-29T10:33:59.770Z,5.47
2019-04-29T10:36:30.812Z,5.07
2019-04-29T10:39:06.621Z,4.93
2019-04-29T10:41:41.937Z,4.90
2019-04-29T10:44:33.569Z,4.63
2019-04-29T10:47:29.300Z,5.07
2019-04-29T10:50:03.041Z,5.00
2019-04-29T10:52:34.533Z,4.87
2019-04-29T10:55:05.616Z,5.10
2019-04-29T10:57:36.188Z,5.00
2019-04-29T11:00:21.878Z,4.77
2019-04-29T11:02:51.192Z,5.40
2019-04-29T11:05:44.520Z,5.27
2019-04-29T11:08:25.287Z,5.03
2019-04-29T11:11:02.076Z,4.80
2019-04-29T11:13:27.677Z,5.87
2019-04-29T11:15:58.285Z,6.40
2019-04-29T11:18:29.012Z,4.87
2019-04-29T11:20:59.283Z,5.77
2019-04-29T11:23:35.029Z,5.07
2019-04-29T11:26:23.236Z,4.77
2019-04-29T11:28:55.601Z,5.30
2019-04-29T11:31:25.732Z,5.10
2019-04-29T11:34:28.077Z,5.10
2019-04-29T11:36:58.190Z,5.67
2019-04-29T11:39:28.515Z,5.80
2019-04-29T11:41:59.551Z,5.70
2019-04-29T11:44:31.975Z,5.67
2019-04-29T11:47:02.547Z,5.47
2019-04-29T11:49:41.245Z,5.35
2019-04-29T11:52:11.686Z,5.33
2019-04-29T11:54:41.697Z,5.40
2019-04-29T11:57:17.238Z,5.50
2019-04-29T12:00:12.209Z,5.00
2019-04-29T12:02:50.946Z,5.10
2019-04-29T12:05:52.097Z,5.47
2019-04-29T12:08:22.546Z,4.90
2019-04-29T12:11:06.169Z,5.37
2019-04-29T12:13:46.968Z,5.00
2019-04-29T12:16:31.218Z,4.60
2019-04-29T12:19:11.964Z,5.50
2019-04-29T12:21:42.155Z,4.50
2019-04-29T12:24:13.036Z,5.00
2019-04-29T12:26:44.469Z,5.97
2019-04-29T12:29:18.250Z,5.00
2019-04-29T12:32:04.496Z,4.93
2019-04-29T12:34:48.777Z,5.10
2019-04-29T12:37:37.831Z,5.50
2019-04-29T12:40:25.613Z,5.37
2019-04-29T12:43:17.763Z,4.97
2019-04-29T12:45:55.817Z,4.90
2019-04-29T12:48:25.992Z,5.20
2019-04-29T12:50:57.550Z,5.27
2019-04-29T12:53:28.157Z,5.50
2019-04-29T12:55:58.501Z,5.10
2019-04-29T12:58:28.505Z,5.00
2019-04-29T13:01:06.052Z,5.17
2019-04-29T13:03:46.497Z,5.50
2019-04-29T13:06:38.485Z,5.17
2019-04-29T13:09:01.587Z,5.30
2019-04-29T13:11:45.565Z,4.60
2019-04-29T13:14:03.378Z,5.80
2019-04-29T13:17:14.496Z,5.53
2019-04-29T13:20:00.959Z,4.53
2019-04-29T13:22:22.129Z,5.40
2019-04-29T13:24:52.210Z,5.50
2019-04-29T13:27:25.440Z,4.10
2019-04-29T13:29:54.946Z,4.80
2019-04-29T13:33:22.278Z,4.80
2019-04-29T13:35:00.414Z,5.87
2019-04-29T13:37:30.914Z,4.77
2019-04-29T13:40:01.387Z,5.57
2019-04-29T13:42:31.445Z,5.00
2019-04-29T13:45:12.557Z,5.00
2019-04-29T13:48:07.187Z,5.13
2019-04-29T13:50:45.510Z,5.00
2019-04-29T13:53:17.230Z,4.50
2019-04-29T13:55:49.845Z,4.17
2019-04-29T13:58:22.325Z,4.87
2019-04-29T14:01:03.600Z,4.83
2019-04-29T14:03:42.097Z,5.17
2019-04-29T14:06:14.422Z,5.03
2019-04-29T14:08:45.220Z,5.60
2019-04-29T14:11:15.248Z,5.60
2019-04-29T14:13:48.239Z,4.20
2019-04-29T14:16:19.252Z,4.83
2019-04-29T14:18:49.948Z,5.00
2019-04-29T14:21:21.081Z,4.27
2019-04-29T14:23:51.381Z,5.00
2019-04-29T14:26:21.517Z,4.63
2019-04-29T14:28:51.641Z,5.47
2019-04-29T14:31:22.807Z,5.20
2019-04-29T14:34:02.082Z,4.93
2019-04-29T14:36:32.269Z,5.00
2019-04-29T14:39:03.060Z,4.40
2019-04-29T14:41:34.824Z,5.10
2019-04-29T14:44:42.522Z,4.90
2019-04-29T14:47:37.657Z,4.33
2019-04-29T14:50:10.744Z,4.77
2019-04-29T14:52:40.175Z,5.50
2019-04-29T14:55:10.284Z,4.60
2019-04-29T14:57:40.473Z,5.10
2019-04-29T15:00:23.135Z,5.30
2019-04-29T15:02:55.823Z,5.37
2019-04-29T15:05:24.957Z,4.30
2019-04-29T15:07:55.151Z,4.07
2019-04-29T15:10:26.775Z,4.40
2019-04-29T15:13:11.539Z,4.57
2019-04-29T15:16:04.756Z,4.50
2019-04-29T15:18:50.328Z,5.17
2019-04-29T15:21:43.748Z,4.47
2019-04-29T15:24:13.425Z,4.57
2019-04-29T15:26:43.848Z,4.80
2019-04-29T15:29:13.960Z,3.97
2019-04-29T15:31:47.223Z,4.70
2019-04-29T15:34:15.925Z,4.80
2019-04-29T15:36:46.446Z,5.27
2019-04-29T15:39:16.770Z,5.33
2019-04-29T15:41:47.076Z,5.60
2019-04-29T15:44:20.281Z,4.83
2019-04-29T15:46:48.768Z,4.90
2019-04-29T15:49:20.214Z,4.97
2019-04-29T15:51:51.508Z,5.43
2019-04-29T15:54:21.906Z,4.60
2019-04-29T15:56:52.200Z,4.80
2019-04-29T15:59:22.449Z,4.97
2019-04-29T16:01:54.182Z,5.50
2019-04-29T16:04:32.430Z,4.40
2019-04-29T16:07:35.803Z,5.93
2019-04-29T16:10:28.155Z,4.40
2019-04-29T16:13:02.365Z,4.60
2019-04-29T16:15:33.645Z,4.43
2019-04-29T16:18:05.401Z,5.27
2019-04-29T16:20:35.668Z,4.40
2019-04-29T16:23:05.789Z,5.10
2019-04-29T16:25:40.659Z,5.63
2019-04-29T16:28:07.555Z,5.33
2019-04-29T16:30:39.088Z,5.03
2019-04-29T16:33:14.087Z,4.67
2019-04-29T16:35:40.833Z,4.97
2019-04-29T16:38:13.768Z,5.50
2019-04-29T16:40:47.454Z,4.63
2019-04-29T16:43:28.952Z,4.57
2019-04-29T16:46:10.704Z,4.40
2019-04-29T16:48:41.311Z,3.87
2019-04-29T16:51:14.445Z,5.00
2019-04-29T16:53:43.424Z,4.60
2019-04-29T16:58:45.317Z,5.13
2019-04-29T17:01:16.237Z,4.77
2019-04-29T17:03:46.329Z,3.37
2019-04-29T17:06:16.817Z,4.20
2019-04-29T17:09:05.423Z,4.10
2019-04-29T17:11:36.538Z,3.90
2019-04-29T17:14:10.214Z,7.23
2019-04-29T17:16:38.889Z,5.40
2019-04-29T17:19:09.020Z,5.57
2019-04-29T17:21:39.045Z,4.33
2019-04-29T17:24:09.365Z,4.17
2019-04-29T17:26:53.336Z,3.77
2019-04-29T17:29:49.302Z,5.10
2019-04-29T17:32:44.180Z,4.43
2019-04-29T17:35:10.165Z,4.20
2019-04-29T17:35:14.556Z,4.17
2019-04-29T17:37:40.273Z,4.07
2019-04-29T17:40:12.688Z,4.87
2019-04-29T17:42:44.633Z,4.27
2019-04-29T17:45:27.175Z,4.30
2019-04-29T17:48:18.223Z,4.10
2019-04-29T17:50:50.119Z,4.37
2019-04-29T17:53:36.610Z,3.90
2019-04-29T17:56:45.078Z,4.13
2019-04-29T17:59:40.799Z,3.80
2019-04-29T18:02:23.307Z,4.03
2019-04-29T18:05:07.090Z,4.07
2019-04-29T18:07:51.565Z,4.30
2019-04-29T18:10:31.069Z,4.60
2019-04-29T18:13:01.245Z,4.97
2019-04-29T18:15:42.400Z,5.03
2019-04-29T18:18:12.333Z,4.70
2019-04-29T18:21:10.356Z,5.10
2019-04-29T18:24:02.052Z,6.00
2019-04-29T18:26:40.196Z,5.20
2019-04-29T18:29:10.552Z,4.07
2019-04-29T18:31:40.573Z,4.80
2019-04-29T18:34:11.000Z,4.60
2019-04-29T18:36:41.323Z,4.50
2019-04-29T18:39:15.952Z,4.30
2019-04-29T18:41:46.120Z,3.77
2019-04-29T18:44:19.662Z,2.83
2019-04-29T18:46:53.595Z,3.10
2019-04-29T18:49:19.891Z,2.70
2019-04-29T18:51:50.395Z,2.80
2019-04-29T18:54:21.512Z,2.67
2019-04-29T18:56:51.757Z,2.97
2019-04-29T18:59:30.491Z,2.63
2019-04-29T19:01:54.873Z,2.10
2019-04-29T19:04:35.457Z,3.07
2019-04-29T19:07:08.146Z,2.83
2019-04-29T19:09:39.645Z,2.97
2019-04-29T19:12:09.923Z,2.33
2019-04-29T19:14:40.108Z,2.67
2019-04-29T19:17:10.369Z,2.47
2019-04-29T19:19:40.426Z,2.90
2019-04-29T19:22:10.651Z,2.87
2019-04-29T19:24:40.725Z,2.80
2019-04-29T19:27:10.921Z,2.53
2019-04-29T19:29:43.200Z,2.37
2019-04-29T19:32:12.827Z,3.10
2019-04-29T19:34:43.647Z,3.00
2019-04-29T19:37:15.404Z,2.87
2019-04-29T19:39:45.640Z,2.70
2019-04-29T19:42:28.673Z,2.67
2019-04-29T19:44:48.169Z,2.73
2019-04-29T19:47:18.332Z,2.57
2019-04-29T19:49:48.502Z,2.83
2019-04-29T19:52:28.106Z,3.00
2019-04-29T19:54:51.236Z,3.03
2019-04-29T19:57:21.488Z,2.77
2019-04-29T19:59:54.323Z,3.00
2019-04-29T20:02:25.921Z,3.00
2019-04-29T20:05:04.994Z,2.60
2019-04-29T20:07:41.113Z,2.73
2019-04-29T20:10:10.187Z,3.00
2019-04-29T20:12:39.852Z,2.43
2019-04-29T20:15:11.138Z,2.90
2019-04-29T20:18:06.929Z,3.00
2019-04-29T20:20:53.673Z,2.77
2019-04-29T20:23:26.282Z,2.97
2019-04-29T20:26:05.569Z,3.30
2019-04-29T20:28:27.569Z,3.43
2019-04-29T20:31:14.988Z,3.27
2019-04-29T20:33:29.684Z,3.27
2019-04-29T20:36:02.395Z,2.90
2019-04-29T20:38:35.100Z,2.97
2019-04-29T20:41:06.235Z,2.70
2019-04-29T20:43:35.997Z,3.20
2019-04-29T20:46:06.494Z,3.20
2019-04-29T20:48:37.107Z,3.00
2019-04-29T20:51:13.157Z,3.30
2019-04-29T20:53:45.908Z,3.47
2019-04-29T20:56:24.164Z,3.50
2019-04-29T20:58:47.643Z,3.00
2019-04-29T21:01:25.465Z,3.53
2019-04-29T21:03:56.703Z,3.87
2019-04-29T21:06:28.258Z,3.30
2019-04-29T21:08:58.312Z,3.17
2019-04-29T21:11:37.276Z,3.77
2019-04-29T21:14:17.821Z,3.20
2019-04-29T21:16:49.432Z,3.40
2019-04-29T21:19:19.585Z,2.67
2019-04-29T21:21:50.429Z,3.40
2019-04-29T21:24:20.576Z,3.30
2019-04-29T21:26:51.108Z,3.43
2019-04-29T21:29:21.278Z,3.40
2019-04-29T21:31:58.595Z,3.80
2019-04-29T21:34:38.497Z,3.47
2019-04-29T21:37:31.939Z,3.57
2019-04-29T21:40:14.007Z,3.53
2019-04-29T21:42:48.204Z,4.50
2019-04-29T21:45:18.957Z,3.10
2019-04-29T21:47:53.353Z,3.90
2019-04-29T21:50:21.060Z,2.77
2019-04-29T21:52:55.284Z,3.53
2019-04-29T21:55:25.805Z,3.10
2019-04-29T21:57:58.923Z,3.20
2019-04-29T22:00:27.322Z,3.43
2019-04-29T22:02:58.976Z,4.50
2019-04-29T22:05:29.639Z,3.13
2019-04-29T22:08:00.154Z,3.47
2019-04-29T22:10:31.048Z,3.13
2019-04-29T22:13:02.371Z,4.13
2019-04-29T22:15:41.201Z,3.63
2019-04-29T22:18:07.238Z,3.90
2019-04-29T22:20:42.237Z,3.60
2019-04-29T22:23:13.265Z,3.50
2019-04-29T22:25:45.657Z,3.40
2019-04-29T22:28:15.957Z,3.33
2019-04-29T22:30:49.827Z,3.13
2019-04-29T22:33:18.397Z,3.10
2019-04-29T22:35:48.793Z,3.60
2019-04-29T22:38:18.990Z,4.10
2019-04-29T22:40:50.280Z,3.50
2019-04-29T22:43:29.323Z,4.30
2019-04-29T22:45:59.683Z,3.70
2019-04-29T22:48:30.379Z,4.33
2019-04-29T22:51:00.364Z,4.10
2019-04-29T22:53:30.837Z,3.57
2019-04-29T22:56:01.468Z,4.30
2019-04-29T22:58:31.620Z,4.10
2019-04-29T23:01:06.812Z,3.70
2019-04-29T23:03:37.606Z,4.10
2019-04-29T23:06:08.404Z,2.90
2019-04-29T23:08:38.752Z,5.20
2019-04-29T23:11:08.816Z,3.93
2019-04-29T23:13:39.448Z,4.23
2019-04-29T23:16:09.721Z,3.60
2019-04-29T23:18:44.043Z,3.97
2019-04-29T23:21:30.450Z,3.77
2019-04-29T23:24:22.400Z,3.70
2019-04-29T23:26:52.471Z,4.83
2019-04-29T23:29:22.674Z,4.93
2019-04-29T23:31:53.040Z,4.10
2019-04-29T23:34:25.865Z,4.90
2019-04-29T23:36:55.338Z,4.67
2019-04-29T23:39:25.509Z,5.20
2019-04-29T23:41:55.577Z,4.80
2019-04-29T23:44:25.580Z,4.00
2019-04-29T23:46:55.673Z,4.40
2019-04-29T23:49:25.732Z,3.30
2019-04-29T23:51:55.836Z,3.87
2019-04-29T23:54:26.250Z,4.30
2019-04-29T23:57:30.066Z,4.53
